NameSizeLast modified
Parent directory/⇩ 136 MB(.zip of contents)
101_SPaCeyALieN - Intro RSKP013.mp3⇩ 3 MB2017-03-29 09:16:51
102_SPaCeyALieN And SoLiXxX - Breaking Killer Soundsz.mp3⇩ 4 MB2017-03-29 09:16:52
103_SPaCeyALieN And Mc Terror Erik - Heeluhmaal Geak Man.mp3⇩ 4 MB2017-03-29 09:16:52
104_SPaCeyALieN - Brutally vagh Murder.mp3⇩ 5 MB2017-03-29 09:16:52
105_SPaCeyALieN - I Just Did It!!.mp3⇩ 4 MB2017-03-29 09:16:53
106_SPaCeyALieN - I Fuck Like No Other!.mp3⇩ 5 MB2017-03-29 09:16:53
107_SPaCeyALieN - Last One Standing.mp3⇩ 4 MB2017-03-29 09:16:54
108_SPaCeyALieN - 666 Bpm In Your Face.mp3⇩ 4 MB2017-03-29 09:16:54
109_SPaCeyALieN - Sick Six 6.mp3⇩ 5 MB2017-03-29 09:16:54
110_SPaCeyALieN - Just Kill Tha Kick .mp3⇩ 4 MB2017-03-29 09:16:55
111_SPaCeyALieN - Vaaguh Stont Uit Je Kont.mp3⇩ 3 MB2017-03-29 09:16:55
112_SPaCeyALieN - Hier Daar Zus En Zo.mp3⇩ 5 MB2017-03-29 09:16:55
113_SPaceyALieN - Dikkuh Friettuh.mp3⇩ 4 MB2017-03-29 09:16:56
114_SPaCeyALieN - Sound Of ElementSz.mp3⇩ 5 MB2017-03-29 09:16:56
201_Smilecythe - Damned Leftovers.mp3⇩ 4 MB2017-03-29 09:16:57
202_Rekom - Tenzional (Rekom Of The Terror).mp3⇩ 4 MB2017-03-29 09:16:57
203_Neuroxid - Asshole.mp3⇩ 5 MB2017-03-29 09:16:57
204_Mc Da Hate - Poison.mp3⇩ 6 MB2017-03-29 09:16:58
205_SPaCeyALieN - Terror Rising Gun.mp3⇩ 5 MB2017-03-29 09:16:58
206_Csbubbles - Rotterdam Style Keeper.mp3⇩ 4 MB2017-03-29 09:16:59
207_SPaCeyALieN And Mc Terror Erik - Koppijn Schijtuh Boeruh En Kotsuh.mp3⇩ 4 MB2017-03-29 09:16:59
208_Rekom - XXX Ok.mp3⇩ 6 MB2017-03-29 09:17:00
209_SPaCeyALieN - Inner Core Infection.mp3⇩ 4 MB2017-03-29 09:17:00
210_Smilecythe- Vitamin D.mp3⇩ 3 MB2017-03-29 09:17:00
211_SPaCeyALieN - Sick In My Brain.mp3⇩ 4 MB2017-03-29 09:17:01
212_Smilecythe - Naulatkaa Räppärit Seinään.mp3⇩ 3 MB2017-03-29 09:17:01
213_SPaCeyALieN - Distortion Destruction.mp3⇩ 3 MB2017-03-29 09:17:01
214_Smilecythe - Impotent Gnawer.mp3⇩ 4 MB2017-03-29 09:17:01
215_SPaCeyALieN - Face Fucker(550BPM)(2010RMX).mp3⇩ 4 MB2017-03-29 09:17:02
216_Mental_D-Struction - Let's Dance And Pray (Mital Team Product).mp3⇩ 5 MB2017-03-29 09:17:02
217_Mc Da Hate - Toxic Rain.mp3⇩ 7 MB2017-03-29 09:17:03
218_[Bonus]_SPaCeyALieN And Mc Terror Erik - Heeluhmaal Geak Man.wmv⇩ 3 MB2017-03-29 09:17:03
RSKP013_Back Cover Cd 1.jpg⇩ 316 KB2017-03-29 09:17:03
RSKP013_Back Cover Cd 2.jpg⇩ 368 KB2017-03-29 09:17:03
RSKP013_Front Cover.jpg⇩ 337 KB2017-03-29 09:17:03
RSKP013_Playlist.txt⇩ 6 KB2017-03-29 09:17:03